sensor_id;sensor_type;location;lat;lon;timestamp;P1;durP1;ratioP1;P2;durP2;ratioP2
60612;SDS011;46443;59.792;17.626;2023-08-08T00:01:33;5.57;;;2.65;;
60612;SDS011;46443;59.792;17.626;2023-08-08T00:04:00;3.78;;;2.53;;
60612;SDS011;46443;59.792;17.626;2023-08-08T00:06:26;4.15;;;2.70;;
60612;SDS011;46443;59.792;17.626;2023-08-08T00:08:52;3.78;;;2.50;;
60612;SDS011;46443;59.792;17.626;2023-08-08T00:11:18;5.18;;;2.67;;
60612;SDS011;46443;59.792;17.626;2023-08-08T00:13:44;3.38;;;2.45;;
60612;SDS011;46443;59.792;17.626;2023-08-08T00:16:11;4.35;;;2.40;;
60612;SDS011;46443;59.792;17.626;2023-08-08T00:18:37;3.20;;;2.22;;
60612;SDS011;46443;59.792;17.626;2023-08-08T00:21:03;3.28;;;2.28;;
60612;SDS011;46443;59.792;17.626;2023-08-08T00:23:29;4.15;;;2.30;;
60612;SDS011;46443;59.792;17.626;2023-08-08T00:25:55;4.03;;;2.53;;
60612;SDS011;46443;59.792;17.626;2023-08-08T00:28:21;3.65;;;2.10;;
60612;SDS011;46443;59.792;17.626;2023-08-08T00:30:47;3.83;;;2.40;;
60612;SDS011;46443;59.792;17.626;2023-08-08T00:33:13;4.45;;;2.47;;
60612;SDS011;46443;59.792;17.626;2023-08-08T00:35:40;4.47;;;2.17;;
60612;SDS011;46443;59.792;17.626;2023-08-08T00:38:06;4.90;;;2.40;;
60612;SDS011;46443;59.792;17.626;2023-08-08T00:40:32;3.83;;;2.20;;
60612;SDS011;46443;59.792;17.626;2023-08-08T00:42:58;4.82;;;2.20;;
60612;SDS011;46443;59.792;17.626;2023-08-08T00:45:24;4.90;;;2.50;;
60612;SDS011;46443;59.792;17.626;2023-08-08T00:47:50;3.50;;;2.20;;
60612;SDS011;46443;59.792;17.626;2023-08-08T00:50:16;2.70;;;2.17;;
60612;SDS011;46443;59.792;17.626;2023-08-08T00:52:43;4.65;;;2.40;;
60612;SDS011;46443;59.792;17.626;2023-08-08T00:55:09;3.20;;;2.20;;
60612;SDS011;46443;59.792;17.626;2023-08-08T00:57:36;5.13;;;2.42;;
60612;SDS011;46443;59.792;17.626;2023-08-08T01:00:04;3.70;;;2.17;;
60612;SDS011;46443;59.792;17.626;2023-08-08T01:02:31;3.70;;;2.15;;
60612;SDS011;46443;59.792;17.626;2023-08-08T01:04:57;2.45;;;1.92;;
60612;SDS011;46443;59.792;17.626;2023-08-08T01:10:40;3.22;;;2.13;;
60612;SDS011;46443;59.792;17.626;2023-08-08T01:13:02;4.43;;;1.98;;
60612;SDS011;46443;59.792;17.626;2023-08-08T01:15:30;3.55;;;2.35;;
60612;SDS011;46443;59.792;17.626;2023-08-08T01:18:01;4.22;;;2.10;;
60612;SDS011;46443;59.792;17.626;2023-08-08T01:20:29;3.78;;;1.83;;
60612;SDS011;46443;59.792;17.626;2023-08-08T01:22:58;3.95;;;1.80;;
60612;SDS011;46443;59.792;17.626;2023-08-08T01:25:29;4.63;;;2.53;;
60612;SDS011;46443;59.792;17.626;2023-08-08T01:27:56;3.85;;;1.90;;
60612;SDS011;46443;59.792;17.626;2023-08-08T01:30:22;4.35;;;2.08;;
60612;SDS011;46443;59.792;17.626;2023-08-08T01:32:48;5.05;;;2.10;;
60612;SDS011;46443;59.792;17.626;2023-08-08T01:35:14;4.15;;;2.10;;
60612;SDS011;46443;59.792;17.626;2023-08-08T01:37:52;2.75;;;1.98;;
60612;SDS011;46443;59.792;17.626;2023-08-08T01:40:18;3.13;;;2.40;;
60612;SDS011;46443;59.792;17.626;2023-08-08T01:42:45;2.60;;;1.90;;
60612;SDS011;46443;59.792;17.626;2023-08-08T01:45:12;5.47;;;2.20;;
60612;SDS011;46443;59.792;17.626;2023-08-08T01:47:38;2.88;;;2.00;;
60612;SDS011;46443;59.792;17.626;2023-08-08T01:50:04;2.50;;;1.88;;
60612;SDS011;46443;59.792;17.626;2023-08-08T01:52:30;3.90;;;1.92;;
60612;SDS011;46443;59.792;17.626;2023-08-08T01:54:56;3.67;;;2.10;;
60612;SDS011;46443;59.792;17.626;2023-08-08T01:57:23;3.42;;;1.95;;
60612;SDS011;46443;59.792;17.626;2023-08-08T01:59:49;2.53;;;1.80;;
60612;SDS011;46443;59.792;17.626;2023-08-08T02:02:15;5.50;;;1.80;;
60612;SDS011;46443;59.792;17.626;2023-08-08T02:04:42;4.05;;;1.77;;
60612;SDS011;46443;59.792;17.626;2023-08-08T02:07:08;2.70;;;1.77;;
60612;SDS011;46443;59.792;17.626;2023-08-08T02:09:34;3.08;;;1.60;;
60612;SDS011;46443;59.792;17.626;2023-08-08T02:12:00;3.55;;;1.92;;
60612;SDS011;46443;59.792;17.626;2023-08-08T02:14:26;3.97;;;1.88;;
60612;SDS011;46443;59.792;17.626;2023-08-08T02:16:53;6.07;;;2.22;;
60612;SDS011;46443;59.792;17.626;2023-08-08T02:19:19;2.38;;;1.70;;
60612;SDS011;46443;59.792;17.626;2023-08-08T02:21:45;4.95;;;2.00;;
60612;SDS011;46443;59.792;17.626;2023-08-08T02:24:11;4.47;;;1.90;;
60612;SDS011;46443;59.792;17.626;2023-08-08T02:26:37;7.30;;;2.10;;
60612;SDS011;46443;59.792;17.626;2023-08-08T02:29:03;3.33;;;1.77;;
60612;SDS011;46443;59.792;17.626;2023-08-08T02:31:29;3.65;;;1.80;;
60612;SDS011;46443;59.792;17.626;2023-08-08T02:33:55;4.18;;;1.90;;
60612;SDS011;46443;59.792;17.626;2023-08-08T02:36:21;4.35;;;2.00;;
60612;SDS011;46443;59.792;17.626;2023-08-08T02:38:47;2.55;;;1.60;;
60612;SDS011;46443;59.792;17.626;2023-08-08T02:41:15;4.18;;;1.85;;
60612;SDS011;46443;59.792;17.626;2023-08-08T02:43:41;2.75;;;2.03;;
60612;SDS011;46443;59.792;17.626;2023-08-08T02:46:07;4.75;;;2.10;;
60612;SDS011;46443;59.792;17.626;2023-08-08T02:48:33;3.33;;;1.80;;
60612;SDS011;46443;59.792;17.626;2023-08-08T02:50:59;2.97;;;1.80;;
60612;SDS011;46443;59.792;17.626;2023-08-08T02:53:25;4.80;;;1.90;;
60612;SDS011;46443;59.792;17.626;2023-08-08T02:55:51;3.00;;;1.95;;
60612;SDS011;46443;59.792;17.626;2023-08-08T02:58:17;2.95;;;1.70;;
60612;SDS011;46443;59.792;17.626;2023-08-08T03:00:43;3.67;;;2.58;;
60612;SDS011;46443;59.792;17.626;2023-08-08T03:03:09;4.40;;;2.28;;
60612;SDS011;46443;59.792;17.626;2023-08-08T03:05:35;5.47;;;2.28;;
60612;SDS011;46443;59.792;17.626;2023-08-08T03:08:01;4.28;;;2.20;;
60612;SDS011;46443;59.792;17.626;2023-08-08T03:10:27;3.30;;;2.08;;
60612;SDS011;46443;59.792;17.626;2023-08-08T03:12:53;4.72;;;2.42;;
60612;SDS011;46443;59.792;17.626;2023-08-08T03:15:19;5.10;;;2.15;;
60612;SDS011;46443;59.792;17.626;2023-08-08T03:17:45;5.28;;;2.22;;
60612;SDS011;46443;59.792;17.626;2023-08-08T03:20:12;3.97;;;2.35;;
60612;SDS011;46443;59.792;17.626;2023-08-08T03:22:38;5.88;;;2.63;;
60612;SDS011;46443;59.792;17.626;2023-08-08T03:25:04;5.10;;;2.65;;
60612;SDS011;46443;59.792;17.626;2023-08-08T03:27:30;5.00;;;2.70;;
60612;SDS011;46443;59.792;17.626;2023-08-08T03:29:56;5.95;;;3.08;;
60612;SDS011;46443;59.792;17.626;2023-08-08T03:32:23;8.43;;;3.20;;
60612;SDS011;46443;59.792;17.626;2023-08-08T03:34:49;5.38;;;2.80;;
60612;SDS011;46443;59.792;17.626;2023-08-08T03:37:15;5.00;;;2.70;;
60612;SDS011;46443;59.792;17.626;2023-08-08T03:39:41;5.50;;;2.55;;
60612;SDS011;46443;59.792;17.626;2023-08-08T03:42:07;5.25;;;2.90;;
60612;SDS011;46443;59.792;17.626;2023-08-08T03:44:33;5.65;;;3.05;;
60612;SDS011;46443;59.792;17.626;2023-08-08T03:46:59;7.95;;;3.40;;
60612;SDS011;46443;59.792;17.626;2023-08-08T03:49:25;7.40;;;2.97;;
60612;SDS011;46443;59.792;17.626;2023-08-08T03:51:51;3.95;;;2.53;;
60612;SDS011;46443;59.792;17.626;2023-08-08T03:54:17;5.75;;;3.30;;
60612;SDS011;46443;59.792;17.626;2023-08-08T03:56:43;4.67;;;2.80;;
60612;SDS011;46443;59.792;17.626;2023-08-08T03:59:10;7.45;;;2.67;;
60612;SDS011;46443;59.792;17.626;2023-08-08T04:01:37;6.22;;;2.75;;
60612;SDS011;46443;59.792;17.626;2023-08-08T04:04:03;5.13;;;2.80;;
60612;SDS011;46443;59.792;17.626;2023-08-08T04:06:30;3.47;;;2.50;;
60612;SDS011;46443;59.792;17.626;2023-08-08T04:08:56;4.63;;;2.80;;
60612;SDS011;46443;59.792;17.626;2023-08-08T04:11:22;8.57;;;3.23;;
60612;SDS011;46443;59.792;17.626;2023-08-08T04:13:48;4.83;;;2.83;;
60612;SDS011;46443;59.792;17.626;2023-08-08T04:16:14;6.13;;;2.80;;
60612;SDS011;46443;59.792;17.626;2023-08-08T04:18:40;7.27;;;3.23;;
60612;SDS011;46443;59.792;17.626;2023-08-08T04:21:06;5.43;;;2.90;;
60612;SDS011;46443;59.792;17.626;2023-08-08T04:23:32;4.30;;;3.10;;
60612;SDS011;46443;59.792;17.626;2023-08-08T04:25:58;4.70;;;3.03;;
60612;SDS011;46443;59.792;17.626;2023-08-08T04:28:24;4.18;;;3.08;;
60612;SDS011;46443;59.792;17.626;2023-08-08T04:30:50;5.23;;;3.00;;
60612;SDS011;46443;59.792;17.626;2023-08-08T04:33:16;4.43;;;2.60;;
60612;SDS011;46443;59.792;17.626;2023-08-08T04:35:42;5.35;;;2.90;;
60612;SDS011;46443;59.792;17.626;2023-08-08T04:38:09;5.88;;;3.45;;
60612;SDS011;46443;59.792;17.626;2023-08-08T04:40:35;5.95;;;3.08;;
60612;SDS011;46443;59.792;17.626;2023-08-08T04:43:01;5.47;;;3.20;;
60612;SDS011;46443;59.792;17.626;2023-08-08T04:45:27;5.13;;;3.10;;
60612;SDS011;46443;59.792;17.626;2023-08-08T04:47:54;4.22;;;2.85;;
60612;SDS011;46443;59.792;17.626;2023-08-08T04:50:20;4.77;;;3.10;;
60612;SDS011;46443;59.792;17.626;2023-08-08T04:52:46;5.37;;;3.00;;
60612;SDS011;46443;59.792;17.626;2023-08-08T04:55:12;5.30;;;3.00;;
60612;SDS011;46443;59.792;17.626;2023-08-08T04:57:38;5.77;;;3.23;;
60612;SDS011;46443;59.792;17.626;2023-08-08T05:00:05;5.07;;;3.17;;
60612;SDS011;46443;59.792;17.626;2023-08-08T05:02:34;5.32;;;3.15;;
60612;SDS011;46443;59.792;17.626;2023-08-08T05:05:00;5.88;;;3.35;;
60612;SDS011;46443;59.792;17.626;2023-08-08T05:07:26;7.38;;;3.20;;
60612;SDS011;46443;59.792;17.626;2023-08-08T05:09:52;4.47;;;3.38;;
60612;SDS011;46443;59.792;17.626;2023-08-08T05:12:18;5.72;;;2.97;;
60612;SDS011;46443;59.792;17.626;2023-08-08T05:14:44;5.10;;;3.08;;
60612;SDS011;46443;59.792;17.626;2023-08-08T05:17:10;4.20;;;3.10;;
60612;SDS011;46443;59.792;17.626;2023-08-08T05:19:36;4.50;;;2.92;;
60612;SDS011;46443;59.792;17.626;2023-08-08T05:22:03;6.50;;;3.25;;
60612;SDS011;46443;59.792;17.626;2023-08-08T05:24:29;4.63;;;2.78;;
60612;SDS011;46443;59.792;17.626;2023-08-08T05:26:55;8.10;;;3.38;;
60612;SDS011;46443;59.792;17.626;2023-08-08T05:29:21;5.70;;;3.30;;
60612;SDS011;46443;59.792;17.626;2023-08-08T05:31:47;4.38;;;3.00;;
60612;SDS011;46443;59.792;17.626;2023-08-08T05:34:13;6.68;;;3.33;;
60612;SDS011;46443;59.792;17.626;2023-08-08T05:36:39;6.70;;;3.28;;
60612;SDS011;46443;59.792;17.626;2023-08-08T05:39:05;6.47;;;3.63;;
60612;SDS011;46443;59.792;17.626;2023-08-08T05:41:32;5.22;;;3.42;;
60612;SDS011;46443;59.792;17.626;2023-08-08T05:43:58;4.47;;;3.60;;
60612;SDS011;46443;59.792;17.626;2023-08-08T05:46:24;5.60;;;3.53;;
60612;SDS011;46443;59.792;17.626;2023-08-08T05:48:50;5.22;;;3.60;;
60612;SDS011;46443;59.792;17.626;2023-08-08T05:51:16;6.65;;;4.30;;
60612;SDS011;46443;59.792;17.626;2023-08-08T05:53:42;8.07;;;4.60;;
60612;SDS011;46443;59.792;17.626;2023-08-08T05:56:08;8.10;;;4.28;;
60612;SDS011;46443;59.792;17.626;2023-08-08T05:58:34;5.93;;;4.47;;
60612;SDS011;46443;59.792;17.626;2023-08-08T06:01:02;8.30;;;4.95;;
60612;SDS011;46443;59.792;17.626;2023-08-08T06:03:34;7.63;;;4.85;;
60612;SDS011;46443;59.792;17.626;2023-08-08T06:06:00;8.40;;;4.50;;
60612;SDS011;46443;59.792;17.626;2023-08-08T06:08:27;7.00;;;4.40;;
60612;SDS011;46443;59.792;17.626;2023-08-08T06:10:53;7.73;;;4.10;;
60612;SDS011;46443;59.792;17.626;2023-08-08T06:13:19;7.47;;;4.03;;
60612;SDS011;46443;59.792;17.626;2023-08-08T06:15:45;4.30;;;2.70;;
60612;SDS011;46443;59.792;17.626;2023-08-08T06:18:11;5.23;;;2.93;;
60612;SDS011;46443;59.792;17.626;2023-08-08T06:20:37;5.57;;;2.85;;
60612;SDS011;46443;59.792;17.626;2023-08-08T06:23:03;4.83;;;2.50;;
60612;SDS011;46443;59.792;17.626;2023-08-08T06:25:29;4.70;;;2.30;;
60612;SDS011;46443;59.792;17.626;2023-08-08T06:27:55;4.07;;;2.50;;
60612;SDS011;46443;59.792;17.626;2023-08-08T06:30:21;3.17;;;2.30;;
60612;SDS011;46443;59.792;17.626;2023-08-08T06:32:47;4.93;;;2.40;;
60612;SDS011;46443;59.792;17.626;2023-08-08T06:35:13;3.60;;;2.03;;
60612;SDS011;46443;59.792;17.626;2023-08-08T06:37:41;5.10;;;1.70;;
60612;SDS011;46443;59.792;17.626;2023-08-08T06:40:09;2.10;;;1.50;;
60612;SDS011;46443;59.792;17.626;2023-08-08T06:42:35;3.63;;;1.60;;
60612;SDS011;46443;59.792;17.626;2023-08-08T06:45:02;2.63;;;1.50;;
60612;SDS011;46443;59.792;17.626;2023-08-08T06:47:28;1.17;;;1.07;;
60612;SDS011;46443;59.792;17.626;2023-08-08T06:49:54;2.27;;;1.00;;
60612;SDS011;46443;59.792;17.626;2023-08-08T06:52:21;2.00;;;0.93;;
60612;SDS011;46443;59.792;17.626;2023-08-08T06:54:47;2.60;;;1.00;;
60612;SDS011;46443;59.792;17.626;2023-08-08T06:57:13;1.73;;;1.00;;
60612;SDS011;46443;59.792;17.626;2023-08-08T06:59:39;1.47;;;1.03;;
60612;SDS011;46443;59.792;17.626;2023-08-08T07:02:06;1.80;;;1.07;;
60612;SDS011;46443;59.792;17.626;2023-08-08T07:04:32;0.87;;;0.73;;
60612;SDS011;46443;59.792;17.626;2023-08-08T07:06:58;2.20;;;0.87;;
60612;SDS011;46443;59.792;17.626;2023-08-08T07:09:24;1.40;;;1.30;;
60612;SDS011;46443;59.792;17.626;2023-08-08T07:11:50;2.13;;;1.00;;
60612;SDS011;46443;59.792;17.626;2023-08-08T07:14:16;1.27;;;1.00;;
60612;SDS011;46443;59.792;17.626;2023-08-08T07:16:42;0.83;;;0.83;;
60612;SDS011;46443;59.792;17.626;2023-08-08T07:19:08;1.23;;;0.90;;
60612;SDS011;46443;59.792;17.626;2023-08-08T07:21:36;1.03;;;0.80;;
60612;SDS011;46443;59.792;17.626;2023-08-08T07:24:02;0.87;;;0.70;;
60612;SDS011;46443;59.792;17.626;2023-08-08T07:26:29;2.37;;;1.07;;
60612;SDS011;46443;59.792;17.626;2023-08-08T07:28:55;0.67;;;0.67;;
60612;SDS011;46443;59.792;17.626;2023-08-08T07:31:21;0.70;;;0.70;;
60612;SDS011;46443;59.792;17.626;2023-08-08T07:33:47;0.77;;;0.70;;
60612;SDS011;46443;59.792;17.626;2023-08-08T07:36:13;1.57;;;0.90;;
60612;SDS011;46443;59.792;17.626;2023-08-08T07:38:39;0.80;;;0.80;;
60612;SDS011;46443;59.792;17.626;2023-08-08T07:41:05;1.53;;;0.90;;
60612;SDS011;46443;59.792;17.626;2023-08-08T07:43:31;0.97;;;0.87;;
60612;SDS011;46443;59.792;17.626;2023-08-08T07:45:57;0.60;;;0.60;;
60612;SDS011;46443;59.792;17.626;2023-08-08T07:48:23;0.70;;;0.70;;
60612;SDS011;46443;59.792;17.626;2023-08-08T07:50:49;1.40;;;0.93;;
60612;SDS011;46443;59.792;17.626;2023-08-08T07:53:15;0.90;;;0.80;;
60612;SDS011;46443;59.792;17.626;2023-08-08T07:55:41;1.13;;;1.00;;
60612;SDS011;46443;59.792;17.626;2023-08-08T07:58:08;1.80;;;1.23;;
60612;SDS011;46443;59.792;17.626;2023-08-08T08:00:34;1.50;;;1.03;;
60612;SDS011;46443;59.792;17.626;2023-08-08T08:03:00;3.43;;;1.40;;
60612;SDS011;46443;59.792;17.626;2023-08-08T08:05:26;1.30;;;1.17;;
60612;SDS011;46443;59.792;17.626;2023-08-08T08:07:52;0.87;;;0.87;;
60612;SDS011;46443;59.792;17.626;2023-08-08T08:10:18;2.23;;;1.00;;
60612;SDS011;46443;59.792;17.626;2023-08-08T08:12:44;1.87;;;1.20;;
60612;SDS011;46443;59.792;17.626;2023-08-08T08:15:10;1.52;;;1.30;;
60612;SDS011;46443;59.792;17.626;2023-08-08T08:17:36;0.90;;;0.90;;
60612;SDS011;46443;59.792;17.626;2023-08-08T08:20:02;1.65;;;1.20;;
60612;SDS011;46443;59.792;17.626;2023-08-08T08:22:36;1.50;;;1.10;;
60612;SDS011;46443;59.792;17.626;2023-08-08T08:25:03;1.92;;;1.20;;
60612;SDS011;46443;59.792;17.626;2023-08-08T08:27:29;1.20;;;1.10;;
60612;SDS011;46443;59.792;17.626;2023-08-08T08:29:55;2.42;;;1.30;;
60612;SDS011;46443;59.792;17.626;2023-08-08T08:32:21;1.02;;;1.00;;
60612;SDS011;46443;59.792;17.626;2023-08-08T08:34:47;1.90;;;1.27;;
60612;SDS011;46443;59.792;17.626;2023-08-08T08:37:13;1.92;;;1.30;;
60612;SDS011;46443;59.792;17.626;2023-08-08T08:39:39;1.08;;;1.00;;
60612;SDS011;46443;59.792;17.626;2023-08-08T08:42:05;2.08;;;1.25;;
60612;SDS011;46443;59.792;17.626;2023-08-08T08:44:32;2.03;;;1.23;;
60612;SDS011;46443;59.792;17.626;2023-08-08T08:46:59;1.23;;;1.13;;
60612;SDS011;46443;59.792;17.626;2023-08-08T08:49:27;1.75;;;1.30;;
60612;SDS011;46443;59.792;17.626;2023-08-08T08:51:55;1.52;;;1.23;;
60612;SDS011;46443;59.792;17.626;2023-08-08T08:54:22;1.63;;;1.15;;
60612;SDS011;46443;59.792;17.626;2023-08-08T08:56:48;1.50;;;1.35;;
60612;SDS011;46443;59.792;17.626;2023-08-08T08:59:15;2.05;;;1.20;;
60612;SDS011;46443;59.792;17.626;2023-08-08T09:01:41;1.88;;;1.35;;
60612;SDS011;46443;59.792;17.626;2023-08-08T09:04:07;1.55;;;1.35;;
60612;SDS011;46443;59.792;17.626;2023-08-08T09:06:34;2.08;;;1.50;;
60612;SDS011;46443;59.792;17.626;2023-08-08T09:09:03;1.58;;;1.30;;
60612;SDS011;46443;59.792;17.626;2023-08-08T09:11:30;6.35;;;1.70;;
60612;SDS011;46443;59.792;17.626;2023-08-08T09:13:57;2.08;;;1.50;;
60612;SDS011;46443;59.792;17.626;2023-08-08T09:16:24;1.92;;;1.48;;
60612;SDS011;46443;59.792;17.626;2023-08-08T09:18:51;2.28;;;1.50;;
60612;SDS011;46443;59.792;17.626;2023-08-08T09:21:18;3.25;;;1.60;;
60612;SDS011;46443;59.792;17.626;2023-08-08T09:23:44;4.72;;;1.70;;
60612;SDS011;46443;59.792;17.626;2023-08-08T09:26:12;2.13;;;1.58;;
60612;SDS011;46443;59.792;17.626;2023-08-08T09:28:41;2.13;;;1.50;;
60612;SDS011;46443;59.792;17.626;2023-08-08T09:31:07;2.33;;;1.48;;
60612;SDS011;46443;59.792;17.626;2023-08-08T09:33:33;3.10;;;1.50;;
60612;SDS011;46443;59.792;17.626;2023-08-08T09:35:59;2.40;;;1.50;;
60612;SDS011;46443;59.792;17.626;2023-08-08T09:38:25;2.42;;;1.90;;
60612;SDS011;46443;59.792;17.626;2023-08-08T09:40:51;2.50;;;1.80;;
60612;SDS011;46443;59.792;17.626;2023-08-08T09:43:17;2.08;;;1.40;;
60612;SDS011;46443;59.792;17.626;2023-08-08T09:45:43;2.35;;;1.60;;
60612;SDS011;46443;59.792;17.626;2023-08-08T09:48:09;2.08;;;1.60;;
60612;SDS011;46443;59.792;17.626;2023-08-08T09:50:36;3.85;;;1.63;;
60612;SDS011;46443;59.792;17.626;2023-08-08T09:53:02;2.47;;;1.70;;
60612;SDS011;46443;59.792;17.626;2023-08-08T09:55:29;3.03;;;1.85;;
60612;SDS011;46443;59.792;17.626;2023-08-08T09:57:56;2.17;;;1.52;;
60612;SDS011;46443;59.792;17.626;2023-08-08T10:00:23;2.67;;;1.55;;
60612;SDS011;46443;59.792;17.626;2023-08-08T10:02:52;2.20;;;1.63;;
60612;SDS011;46443;59.792;17.626;2023-08-08T10:05:19;2.45;;;1.73;;
60612;SDS011;46443;59.792;17.626;2023-08-08T10:07:45;2.85;;;1.52;;
60612;SDS011;46443;59.792;17.626;2023-08-08T10:10:11;2.00;;;1.60;;
60612;SDS011;46443;59.792;17.626;2023-08-08T10:12:38;2.78;;;1.63;;
60612;SDS011;46443;59.792;17.626;2023-08-08T10:15:08;2.05;;;1.40;;
60612;SDS011;46443;59.792;17.626;2023-08-08T10:17:35;2.00;;;1.35;;
60612;SDS011;46443;59.792;17.626;2023-08-08T10:20:01;2.00;;;1.60;;
60612;SDS011;46443;59.792;17.626;2023-08-08T10:22:36;2.40;;;1.60;;
60612;SDS011;46443;59.792;17.626;2023-08-08T10:25:03;2.20;;;1.60;;
60612;SDS011;46443;59.792;17.626;2023-08-08T10:27:34;3.13;;;1.80;;
60612;SDS011;46443;59.792;17.626;2023-08-08T10:30:01;2.17;;;1.50;;
60612;SDS011;46443;59.792;17.626;2023-08-08T10:32:28;1.77;;;1.40;;
60612;SDS011;46443;59.792;17.626;2023-08-08T10:34:55;1.98;;;1.50;;
60612;SDS011;46443;59.792;17.626;2023-08-08T10:37:26;1.63;;;1.48;;
60612;SDS011;46443;59.792;17.626;2023-08-08T10:39:57;2.42;;;1.70;;
60612;SDS011;46443;59.792;17.626;2023-08-08T10:42:24;2.67;;;1.90;;
60612;SDS011;46443;59.792;17.626;2023-08-08T10:44:51;1.88;;;1.45;;
60612;SDS011;46443;59.792;17.626;2023-08-08T10:47:34;2.83;;;1.50;;
60612;SDS011;46443;59.792;17.626;2023-08-08T10:52:29;1.70;;;1.48;;
60612;SDS011;46443;59.792;17.626;2023-08-08T10:54:55;2.08;;;1.50;;
60612;SDS011;46443;59.792;17.626;2023-08-08T10:57:25;2.03;;;1.60;;
60612;SDS011;46443;59.792;17.626;2023-08-08T10:59:52;2.97;;;1.50;;
60612;SDS011;46443;59.792;17.626;2023-08-08T11:02:19;2.05;;;1.50;;
60612;SDS011;46443;59.792;17.626;2023-08-08T11:04:47;2.30;;;1.65;;
60612;SDS011;46443;59.792;17.626;2023-08-08T11:07:14;2.85;;;1.80;;
60612;SDS011;46443;59.792;17.626;2023-08-08T11:09:41;2.28;;;1.77;;
60612;SDS011;46443;59.792;17.626;2023-08-08T11:12:13;2.38;;;1.50;;
60612;SDS011;46443;59.792;17.626;2023-08-08T11:14:40;3.78;;;1.80;;
60612;SDS011;46443;59.792;17.626;2023-08-08T11:17:06;3.33;;;1.77;;
60612;SDS011;46443;59.792;17.626;2023-08-08T11:19:38;2.90;;;1.80;;
60612;SDS011;46443;59.792;17.626;2023-08-08T11:22:08;4.30;;;2.08;;
60612;SDS011;46443;59.792;17.626;2023-08-08T11:24:35;2.75;;;1.88;;
60612;SDS011;46443;59.792;17.626;2023-08-08T11:27:01;2.85;;;1.73;;
60612;SDS011;46443;59.792;17.626;2023-08-08T11:29:27;2.42;;;1.58;;
60612;SDS011;46443;59.792;17.626;2023-08-08T11:31:56;2.58;;;1.60;;
60612;SDS011;46443;59.792;17.626;2023-08-08T11:34:22;2.50;;;1.73;;
60612;SDS011;46443;59.792;17.626;2023-08-08T11:36:48;3.43;;;1.70;;
60612;SDS011;46443;59.792;17.626;2023-08-08T11:39:15;2.50;;;1.70;;
60612;SDS011;46443;59.792;17.626;2023-08-08T11:41:41;4.47;;;1.90;;
60612;SDS011;46443;59.792;17.626;2023-08-08T11:44:07;1.60;;;1.30;;
60612;SDS011;46443;59.792;17.626;2023-08-08T11:46:34;2.93;;;1.60;;
60612;SDS011;46443;59.792;17.626;2023-08-08T11:49:06;2.70;;;1.67;;
60612;SDS011;46443;59.792;17.626;2023-08-08T11:51:33;2.37;;;1.40;;
60612;SDS011;46443;59.792;17.626;2023-08-08T11:54:00;2.53;;;1.50;;
60612;SDS011;46443;59.792;17.626;2023-08-08T11:56:26;2.17;;;1.60;;
60612;SDS011;46443;59.792;17.626;2023-08-08T11:58:54;1.37;;;1.23;;
60612;SDS011;46443;59.792;17.626;2023-08-08T12:01:24;2.33;;;1.58;;
60612;SDS011;46443;59.792;17.626;2023-08-08T12:03:51;2.22;;;1.60;;
60612;SDS011;46443;59.792;17.626;2023-08-08T12:06:17;3.10;;;1.60;;
60612;SDS011;46443;59.792;17.626;2023-08-08T12:08:44;2.30;;;1.55;;
60612;SDS011;46443;59.792;17.626;2023-08-08T12:11:11;2.25;;;1.60;;
60612;SDS011;46443;59.792;17.626;2023-08-08T12:13:38;2.35;;;1.70;;
60612;SDS011;46443;59.792;17.626;2023-08-08T12:16:05;5.57;;;1.75;;
60612;SDS011;46443;59.792;17.626;2023-08-08T12:18:31;2.30;;;1.60;;
60612;SDS011;46443;59.792;17.626;2023-08-08T12:20:58;4.22;;;1.60;;
60612;SDS011;46443;59.792;17.626;2023-08-08T12:23:26;3.85;;;1.73;;
60612;SDS011;46443;59.792;17.626;2023-08-08T12:25:52;2.90;;;1.73;;
60612;SDS011;46443;59.792;17.626;2023-08-08T12:28:18;1.93;;;1.43;;
60612;SDS011;46443;59.792;17.626;2023-08-08T12:30:44;2.45;;;1.58;;
60612;SDS011;46443;59.792;17.626;2023-08-08T12:33:11;2.70;;;1.30;;
60612;SDS011;46443;59.792;17.626;2023-08-08T12:35:37;1.53;;;1.33;;
60612;SDS011;46443;59.792;17.626;2023-08-08T12:38:03;1.47;;;1.30;;
60612;SDS011;46443;59.792;17.626;2023-08-08T12:40:29;2.17;;;1.77;;
60612;SDS011;46443;59.792;17.626;2023-08-08T12:42:55;1.90;;;1.50;;
60612;SDS011;46443;59.792;17.626;2023-08-08T12:45:21;2.03;;;1.50;;
60612;SDS011;46443;59.792;17.626;2023-08-08T12:47:48;3.27;;;1.47;;
60612;SDS011;46443;59.792;17.626;2023-08-08T12:50:14;1.90;;;1.40;;
60612;SDS011;46443;59.792;17.626;2023-08-08T12:52:40;2.13;;;1.37;;
60612;SDS011;46443;59.792;17.626;2023-08-08T12:55:06;5.25;;;1.75;;
60612;SDS011;46443;59.792;17.626;2023-08-08T12:57:34;2.20;;;1.60;;
60612;SDS011;46443;59.792;17.626;2023-08-08T13:00:00;2.03;;;1.42;;
60612;SDS011;46443;59.792;17.626;2023-08-08T13:02:26;2.00;;;1.40;;
60612;SDS011;46443;59.792;17.626;2023-08-08T13:04:52;1.93;;;1.43;;
60612;SDS011;46443;59.792;17.626;2023-08-08T13:07:18;2.43;;;1.40;;
60612;SDS011;46443;59.792;17.626;2023-08-08T13:09:44;3.20;;;1.60;;
60612;SDS011;46443;59.792;17.626;2023-08-08T13:12:11;1.80;;;1.40;;
60612;SDS011;46443;59.792;17.626;2023-08-08T13:14:37;3.37;;;1.60;;
60612;SDS011;46443;59.792;17.626;2023-08-08T13:17:03;2.43;;;1.30;;
60612;SDS011;46443;59.792;17.626;2023-08-08T13:19:29;2.83;;;1.43;;
60612;SDS011;46443;59.792;17.626;2023-08-08T13:21:55;3.17;;;1.47;;
60612;SDS011;46443;59.792;17.626;2023-08-08T13:24:21;1.80;;;1.30;;
60612;SDS011;46443;59.792;17.626;2023-08-08T13:26:50;2.08;;;1.20;;
60612;SDS011;46443;59.792;17.626;2023-08-08T13:29:17;1.83;;;1.50;;
60612;SDS011;46443;59.792;17.626;2023-08-08T13:31:43;2.33;;;1.40;;
60612;SDS011;46443;59.792;17.626;2023-08-08T13:34:09;3.30;;;1.60;;
60612;SDS011;46443;59.792;17.626;2023-08-08T13:36:36;3.53;;;1.40;;
60612;SDS011;46443;59.792;17.626;2023-08-08T13:39:02;2.93;;;1.77;;
60612;SDS011;46443;59.792;17.626;2023-08-08T13:41:29;1.87;;;1.37;;
60612;SDS011;46443;59.792;17.626;2023-08-08T13:43:55;2.37;;;1.70;;
60612;SDS011;46443;59.792;17.626;2023-08-08T13:46:21;1.90;;;1.40;;
60612;SDS011;46443;59.792;17.626;2023-08-08T13:48:47;1.40;;;1.30;;
60612;SDS011;46443;59.792;17.626;2023-08-08T13:51:13;1.97;;;1.40;;
60612;SDS011;46443;59.792;17.626;2023-08-08T13:53:40;2.00;;;1.30;;
60612;SDS011;46443;59.792;17.626;2023-08-08T13:56:06;1.83;;;1.40;;
60612;SDS011;46443;59.792;17.626;2023-08-08T13:58:32;3.13;;;1.50;;
60612;SDS011;46443;59.792;17.626;2023-08-08T14:00:58;2.80;;;1.53;;
60612;SDS011;46443;59.792;17.626;2023-08-08T14:03:24;2.33;;;1.23;;
60612;SDS011;46443;59.792;17.626;2023-08-08T14:05:50;3.47;;;1.53;;
60612;SDS011;46443;59.792;17.626;2023-08-08T14:08:17;1.43;;;1.27;;
60612;SDS011;46443;59.792;17.626;2023-08-08T14:10:44;1.97;;;1.30;;
60612;SDS011;46443;59.792;17.626;2023-08-08T14:13:10;3.13;;;1.50;;
60612;SDS011;46443;59.792;17.626;2023-08-08T14:15:36;2.53;;;1.37;;
60612;SDS011;46443;59.792;17.626;2023-08-08T14:18:03;5.03;;;1.40;;
60612;SDS011;46443;59.792;17.626;2023-08-08T14:20:29;3.03;;;1.58;;
60612;SDS011;46443;59.792;17.626;2023-08-08T14:22:55;3.33;;;1.50;;
60612;SDS011;46443;59.792;17.626;2023-08-08T14:25:22;3.20;;;1.30;;
60612;SDS011;46443;59.792;17.626;2023-08-08T14:27:48;1.63;;;1.30;;
60612;SDS011;46443;59.792;17.626;2023-08-08T14:30:14;2.80;;;1.77;;
60612;SDS011;46443;59.792;17.626;2023-08-08T14:32:40;2.30;;;1.30;;
60612;SDS011;46443;59.792;17.626;2023-08-08T14:35:06;3.33;;;1.30;;